sensor_id;sensor_type;location;lat;lon;timestamp;P1;durP1;ratioP1;P2;durP2;ratioP2
68523;SDS011;55524;51.380;13.372;2023-05-07T00:01:00;16.40;;;12.60;;
68523;SDS011;55524;51.380;13.372;2023-05-07T00:03:26;18.08;;;12.30;;
68523;SDS011;55524;51.380;13.372;2023-05-07T00:05:53;19.17;;;12.90;;
68523;SDS011;55524;51.380;13.372;2023-05-07T00:08:20;18.88;;;12.68;;
68523;SDS011;55524;51.380;13.372;2023-05-07T00:10:46;16.40;;;11.98;;
68523;SDS011;55524;51.380;13.372;2023-05-07T00:13:13;19.10;;;12.52;;
68523;SDS011;55524;51.380;13.372;2023-05-07T00:15:39;20.42;;;13.23;;
68523;SDS011;55524;51.380;13.372;2023-05-07T00:18:06;17.65;;;13.02;;
68523;SDS011;55524;51.380;13.372;2023-05-07T00:20:32;16.52;;;12.25;;
68523;SDS011;55524;51.380;13.372;2023-05-07T00:22:58;18.00;;;12.57;;
68523;SDS011;55524;51.380;13.372;2023-05-07T00:25:25;17.15;;;12.23;;
68523;SDS011;55524;51.380;13.372;2023-05-07T00:27:51;18.35;;;13.10;;
68523;SDS011;55524;51.380;13.372;2023-05-07T00:30:17;16.52;;;12.40;;
68523;SDS011;55524;51.380;13.372;2023-05-07T00:32:44;17.45;;;12.85;;
68523;SDS011;55524;51.380;13.372;2023-05-07T00:35:10;17.38;;;11.32;;
68523;SDS011;55524;51.380;13.372;2023-05-07T00:37:37;17.00;;;12.25;;
68523;SDS011;55524;51.380;13.372;2023-05-07T00:40:04;16.17;;;11.45;;
68523;SDS011;55524;51.380;13.372;2023-05-07T00:42:32;16.58;;;11.38;;
68523;SDS011;55524;51.380;13.372;2023-05-07T00:44:58;16.02;;;11.02;;
68523;SDS011;55524;51.380;13.372;2023-05-07T00:47:25;16.17;;;11.52;;
68523;SDS011;55524;51.380;13.372;2023-05-07T00:49:51;17.13;;;11.55;;
68523;SDS011;55524;51.380;13.372;2023-05-07T00:52:18;14.15;;;10.68;;
68523;SDS011;55524;51.380;13.372;2023-05-07T00:54:46;17.48;;;11.70;;
68523;SDS011;55524;51.380;13.372;2023-05-07T00:57:13;15.70;;;10.95;;
68523;SDS011;55524;51.380;13.372;2023-05-07T00:59:40;17.05;;;11.75;;
68523;SDS011;55524;51.380;13.372;2023-05-07T01:02:07;15.10;;;10.45;;
68523;SDS011;55524;51.380;13.372;2023-05-07T01:04:33;14.85;;;11.10;;
68523;SDS011;55524;51.380;13.372;2023-05-07T01:07:00;13.82;;;9.77;;
68523;SDS011;55524;51.380;13.372;2023-05-07T01:09:27;15.27;;;10.45;;
68523;SDS011;55524;51.380;13.372;2023-05-07T01:11:54;15.35;;;10.60;;
68523;SDS011;55524;51.380;13.372;2023-05-07T01:14:22;14.98;;;10.63;;
68523;SDS011;55524;51.380;13.372;2023-05-07T01:16:50;16.85;;;11.73;;
68523;SDS011;55524;51.380;13.372;2023-05-07T01:19:17;15.32;;;10.45;;
68523;SDS011;55524;51.380;13.372;2023-05-07T01:21:45;16.67;;;10.80;;
68523;SDS011;55524;51.380;13.372;2023-05-07T01:24:13;17.13;;;11.32;;
68523;SDS011;55524;51.380;13.372;2023-05-07T01:26:40;18.85;;;11.10;;
68523;SDS011;55524;51.380;13.372;2023-05-07T01:29:07;16.67;;;10.85;;
68523;SDS011;55524;51.380;13.372;2023-05-07T01:31:34;19.27;;;11.27;;
68523;SDS011;55524;51.380;13.372;2023-05-07T01:34:01;16.70;;;11.40;;
68523;SDS011;55524;51.380;13.372;2023-05-07T01:36:29;16.42;;;11.32;;
68523;SDS011;55524;51.380;13.372;2023-05-07T01:38:56;17.15;;;10.10;;
68523;SDS011;55524;51.380;13.372;2023-05-07T01:41:24;18.08;;;10.77;;
68523;SDS011;55524;51.380;13.372;2023-05-07T01:43:50;17.15;;;10.68;;
68523;SDS011;55524;51.380;13.372;2023-05-07T01:46:20;16.65;;;10.73;;
68523;SDS011;55524;51.380;13.372;2023-05-07T01:48:46;17.83;;;11.57;;
68523;SDS011;55524;51.380;13.372;2023-05-07T01:51:12;15.50;;;10.68;;
68523;SDS011;55524;51.380;13.372;2023-05-07T01:53:39;20.23;;;11.98;;
68523;SDS011;55524;51.380;13.372;2023-05-07T01:56:06;18.50;;;10.85;;
68523;SDS011;55524;51.380;13.372;2023-05-07T01:58:32;16.98;;;11.18;;
68523;SDS011;55524;51.380;13.372;2023-05-07T02:00:58;22.83;;;12.35;;
68523;SDS011;55524;51.380;13.372;2023-05-07T02:03:25;20.63;;;12.15;;
68523;SDS011;55524;51.380;13.372;2023-05-07T02:05:51;18.88;;;11.07;;
68523;SDS011;55524;51.380;13.372;2023-05-07T02:08:17;18.30;;;11.23;;
68523;SDS011;55524;51.380;13.372;2023-05-07T02:10:44;17.58;;;10.75;;
68523;SDS011;55524;51.380;13.372;2023-05-07T02:13:10;18.92;;;11.38;;
68523;SDS011;55524;51.380;13.372;2023-05-07T02:15:36;19.27;;;11.27;;
68523;SDS011;55524;51.380;13.372;2023-05-07T02:18:03;18.38;;;11.15;;
68523;SDS011;55524;51.380;13.372;2023-05-07T02:20:36;18.60;;;11.07;;
68523;SDS011;55524;51.380;13.372;2023-05-07T02:23:03;22.25;;;11.32;;
68523;SDS011;55524;51.380;13.372;2023-05-07T02:25:29;14.52;;;10.63;;
68523;SDS011;55524;51.380;13.372;2023-05-07T02:27:55;16.90;;;9.85;;
68523;SDS011;55524;51.380;13.372;2023-05-07T02:30:21;16.42;;;9.55;;
68523;SDS011;55524;51.380;13.372;2023-05-07T02:32:48;16.38;;;9.57;;
68523;SDS011;55524;51.380;13.372;2023-05-07T02:35:15;14.07;;;9.13;;
68523;SDS011;55524;51.380;13.372;2023-05-07T02:37:41;14.43;;;10.07;;
68523;SDS011;55524;51.380;13.372;2023-05-07T02:40:08;13.60;;;8.20;;
68523;SDS011;55524;51.380;13.372;2023-05-07T02:42:35;12.25;;;7.80;;
68523;SDS011;55524;51.380;13.372;2023-05-07T02:45:01;12.70;;;8.07;;
68523;SDS011;55524;51.380;13.372;2023-05-07T02:47:27;14.07;;;8.50;;
68523;SDS011;55524;51.380;13.372;2023-05-07T02:49:54;13.18;;;8.45;;
68523;SDS011;55524;51.380;13.372;2023-05-07T02:52:21;12.63;;;8.32;;
68523;SDS011;55524;51.380;13.372;2023-05-07T02:54:47;12.10;;;9.20;;
68523;SDS011;55524;51.380;13.372;2023-05-07T02:57:13;13.02;;;8.55;;
68523;SDS011;55524;51.380;13.372;2023-05-07T02:59:40;16.02;;;8.48;;
68523;SDS011;55524;51.380;13.372;2023-05-07T03:02:07;12.32;;;8.52;;
68523;SDS011;55524;51.380;13.372;2023-05-07T03:04:33;15.10;;;8.30;;
68523;SDS011;55524;51.380;13.372;2023-05-07T03:06:59;12.55;;;8.30;;
68523;SDS011;55524;51.380;13.372;2023-05-07T03:09:25;11.52;;;8.35;;
68523;SDS011;55524;51.380;13.372;2023-05-07T03:11:52;13.20;;;9.48;;
68523;SDS011;55524;51.380;13.372;2023-05-07T03:14:18;14.15;;;8.93;;
68523;SDS011;55524;51.380;13.372;2023-05-07T03:16:45;10.75;;;8.73;;
68523;SDS011;55524;51.380;13.372;2023-05-07T03:19:11;11.13;;;8.75;;
68523;SDS011;55524;51.380;13.372;2023-05-07T03:21:38;11.80;;;8.43;;
68523;SDS011;55524;51.380;13.372;2023-05-07T03:24:04;14.32;;;8.80;;
68523;SDS011;55524;51.380;13.372;2023-05-07T03:26:31;13.13;;;9.23;;
68523;SDS011;55524;51.380;13.372;2023-05-07T03:28:57;16.60;;;9.65;;
68523;SDS011;55524;51.380;13.372;2023-05-07T03:31:23;11.77;;;9.00;;
68523;SDS011;55524;51.380;13.372;2023-05-07T03:33:53;14.20;;;9.35;;
68523;SDS011;55524;51.380;13.372;2023-05-07T03:36:21;13.15;;;9.95;;
68523;SDS011;55524;51.380;13.372;2023-05-07T03:38:48;15.07;;;10.02;;
68523;SDS011;55524;51.380;13.372;2023-05-07T03:41:14;13.27;;;10.02;;
68523;SDS011;55524;51.380;13.372;2023-05-07T03:43:41;13.23;;;10.30;;
68523;SDS011;55524;51.380;13.372;2023-05-07T03:46:07;15.50;;;10.32;;
68523;SDS011;55524;51.380;13.372;2023-05-07T03:48:33;18.48;;;10.38;;
68523;SDS011;55524;51.380;13.372;2023-05-07T03:51:00;16.75;;;9.85;;
68523;SDS011;55524;51.380;13.372;2023-05-07T03:53:26;13.63;;;9.82;;
68523;SDS011;55524;51.380;13.372;2023-05-07T03:55:54;13.30;;;9.70;;
68523;SDS011;55524;51.380;13.372;2023-05-07T03:58:21;14.52;;;10.80;;
68523;SDS011;55524;51.380;13.372;2023-05-07T04:00:47;15.80;;;10.15;;
68523;SDS011;55524;51.380;13.372;2023-05-07T04:03:13;16.27;;;10.93;;
68523;SDS011;55524;51.380;13.372;2023-05-07T04:05:40;12.45;;;9.95;;
68523;SDS011;55524;51.380;13.372;2023-05-07T04:08:06;14.38;;;10.25;;
68523;SDS011;55524;51.380;13.372;2023-05-07T04:10:33;13.43;;;9.13;;
68523;SDS011;55524;51.380;13.372;2023-05-07T04:12:59;13.63;;;9.10;;
68523;SDS011;55524;51.380;13.372;2023-05-07T04:15:25;16.08;;;9.90;;
68523;SDS011;55524;51.380;13.372;2023-05-07T04:17:51;13.52;;;9.98;;
68523;SDS011;55524;51.380;13.372;2023-05-07T04:20:18;14.90;;;9.57;;
68523;SDS011;55524;51.380;13.372;2023-05-07T04:22:44;11.48;;;8.98;;
68523;SDS011;55524;51.380;13.372;2023-05-07T04:25:10;16.30;;;9.13;;
68523;SDS011;55524;51.380;13.372;2023-05-07T04:27:37;11.80;;;8.95;;
68523;SDS011;55524;51.380;13.372;2023-05-07T04:30:03;12.13;;;9.05;;
68523;SDS011;55524;51.380;13.372;2023-05-07T04:32:30;13.00;;;9.50;;
68523;SDS011;55524;51.380;13.372;2023-05-07T04:34:56;13.15;;;8.57;;
68523;SDS011;55524;51.380;13.372;2023-05-07T04:37:23;14.52;;;9.15;;
68523;SDS011;55524;51.380;13.372;2023-05-07T04:39:50;11.45;;;8.70;;
68523;SDS011;55524;51.380;13.372;2023-05-07T04:42:17;11.40;;;8.52;;
68523;SDS011;55524;51.380;13.372;2023-05-07T04:44:44;13.20;;;9.85;;
68523;SDS011;55524;51.380;13.372;2023-05-07T04:47:11;12.93;;;8.35;;
68523;SDS011;55524;51.380;13.372;2023-05-07T04:49:38;12.02;;;8.73;;
68523;SDS011;55524;51.380;13.372;2023-05-07T04:52:04;11.65;;;8.40;;
68523;SDS011;55524;51.380;13.372;2023-05-07T04:54:30;13.00;;;9.10;;
68523;SDS011;55524;51.380;13.372;2023-05-07T04:56:57;16.30;;;9.85;;
68523;SDS011;55524;51.380;13.372;2023-05-07T04:59:23;12.32;;;8.98;;
68523;SDS011;55524;51.380;13.372;2023-05-07T05:01:49;12.65;;;8.95;;
68523;SDS011;55524;51.380;13.372;2023-05-07T05:04:15;9.13;;;7.88;;
68523;SDS011;55524;51.380;13.372;2023-05-07T05:06:42;10.27;;;8.02;;
68523;SDS011;55524;51.380;13.372;2023-05-07T05:09:08;12.32;;;8.38;;
68523;SDS011;55524;51.380;13.372;2023-05-07T05:11:34;13.93;;;7.95;;
68523;SDS011;55524;51.380;13.372;2023-05-07T05:14:01;11.65;;;8.27;;
68523;SDS011;55524;51.380;13.372;2023-05-07T05:16:27;10.75;;;7.78;;
68523;SDS011;55524;51.380;13.372;2023-05-07T05:18:53;8.15;;;7.10;;
68523;SDS011;55524;51.380;13.372;2023-05-07T05:21:20;9.52;;;7.18;;
68523;SDS011;55524;51.380;13.372;2023-05-07T05:23:46;9.27;;;7.55;;
68523;SDS011;55524;51.380;13.372;2023-05-07T05:26:13;10.77;;;6.53;;
68523;SDS011;55524;51.380;13.372;2023-05-07T05:28:39;7.65;;;6.47;;
68523;SDS011;55524;51.380;13.372;2023-05-07T05:31:05;8.55;;;6.88;;
68523;SDS011;55524;51.380;13.372;2023-05-07T05:33:32;9.85;;;6.97;;
68523;SDS011;55524;51.380;13.372;2023-05-07T05:35:58;6.95;;;6.13;;
68523;SDS011;55524;51.380;13.372;2023-05-07T05:38:24;8.43;;;6.25;;
68523;SDS011;55524;51.380;13.372;2023-05-07T05:40:51;8.07;;;6.45;;
68523;SDS011;55524;51.380;13.372;2023-05-07T05:43:17;9.00;;;7.07;;
68523;SDS011;55524;51.380;13.372;2023-05-07T05:45:43;8.32;;;6.00;;
68523;SDS011;55524;51.380;13.372;2023-05-07T05:48:09;7.05;;;6.35;;
68523;SDS011;55524;51.380;13.372;2023-05-07T05:50:36;7.00;;;6.28;;
68523;SDS011;55524;51.380;13.372;2023-05-07T05:53:02;6.90;;;6.20;;
68523;SDS011;55524;51.380;13.372;2023-05-07T05:55:29;7.75;;;6.38;;
68523;SDS011;55524;51.380;13.372;2023-05-07T05:57:57;7.28;;;6.55;;
68523;SDS011;55524;51.380;13.372;2023-05-07T06:00:25;9.85;;;6.72;;
68523;SDS011;55524;51.380;13.372;2023-05-07T06:02:52;7.57;;;6.78;;
68523;SDS011;55524;51.380;13.372;2023-05-07T06:05:18;7.65;;;6.55;;
68523;SDS011;55524;51.380;13.372;2023-05-07T06:07:44;11.10;;;6.63;;
68523;SDS011;55524;51.380;13.372;2023-05-07T06:10:10;7.28;;;6.20;;
68523;SDS011;55524;51.380;13.372;2023-05-07T06:12:37;9.00;;;7.35;;
68523;SDS011;55524;51.380;13.372;2023-05-07T06:15:03;10.10;;;6.95;;
68523;SDS011;55524;51.380;13.372;2023-05-07T06:17:30;8.77;;;7.20;;
68523;SDS011;55524;51.380;13.372;2023-05-07T06:19:57;10.00;;;7.50;;
68523;SDS011;55524;51.380;13.372;2023-05-07T06:22:23;9.55;;;7.65;;
68523;SDS011;55524;51.380;13.372;2023-05-07T06:24:49;11.48;;;8.20;;
68523;SDS011;55524;51.380;13.372;2023-05-07T06:27:15;11.82;;;8.20;;
68523;SDS011;55524;51.380;13.372;2023-05-07T06:29:42;8.88;;;7.88;;
68523;SDS011;55524;51.380;13.372;2023-05-07T06:32:08;12.38;;;8.15;;
68523;SDS011;55524;51.380;13.372;2023-05-07T06:34:36;9.82;;;7.80;;
68523;SDS011;55524;51.380;13.372;2023-05-07T06:37:03;11.48;;;8.20;;
68523;SDS011;55524;51.380;13.372;2023-05-07T06:39:29;10.98;;;8.23;;
68523;SDS011;55524;51.380;13.372;2023-05-07T06:41:56;10.07;;;8.13;;
68523;SDS011;55524;51.380;13.372;2023-05-07T06:44:22;8.93;;;7.00;;
68523;SDS011;55524;51.380;13.372;2023-05-07T06:46:49;7.90;;;6.80;;
68523;SDS011;55524;51.380;13.372;2023-05-07T06:49:15;9.45;;;7.65;;
68523;SDS011;55524;51.380;13.372;2023-05-07T06:51:41;9.00;;;7.60;;
68523;SDS011;55524;51.380;13.372;2023-05-07T06:54:08;9.18;;;6.80;;
68523;SDS011;55524;51.380;13.372;2023-05-07T06:56:34;7.72;;;6.82;;
68523;SDS011;55524;51.380;13.372;2023-05-07T06:59:01;19.67;;;8.07;;
68523;SDS011;55524;51.380;13.372;2023-05-07T07:01:28;9.18;;;6.43;;
68523;SDS011;55524;51.380;13.372;2023-05-07T07:03:54;10.20;;;6.85;;
68523;SDS011;55524;51.380;13.372;2023-05-07T07:06:21;9.82;;;5.78;;
68523;SDS011;55524;51.380;13.372;2023-05-07T07:08:47;12.52;;;6.20;;
68523;SDS011;55524;51.380;13.372;2023-05-07T07:11:13;9.40;;;6.78;;
68523;SDS011;55524;51.380;13.372;2023-05-07T07:13:40;10.82;;;6.65;;
68523;SDS011;55524;51.380;13.372;2023-05-07T07:16:08;13.82;;;6.55;;
68523;SDS011;55524;51.380;13.372;2023-05-07T07:18:34;8.15;;;4.75;;
68523;SDS011;55524;51.380;13.372;2023-05-07T07:21:01;9.43;;;5.97;;
68523;SDS011;55524;51.380;13.372;2023-05-07T07:23:27;8.55;;;6.07;;
68523;SDS011;55524;51.380;13.372;2023-05-07T07:25:53;7.80;;;5.18;;
68523;SDS011;55524;51.380;13.372;2023-05-07T07:28:20;9.82;;;5.97;;
68523;SDS011;55524;51.380;13.372;2023-05-07T07:30:47;9.88;;;5.65;;
68523;SDS011;55524;51.380;13.372;2023-05-07T07:33:13;8.65;;;5.65;;
68523;SDS011;55524;51.380;13.372;2023-05-07T07:35:39;11.63;;;6.28;;
68523;SDS011;55524;51.380;13.372;2023-05-07T07:38:06;7.03;;;6.32;;
68523;SDS011;55524;51.380;13.372;2023-05-07T07:40:34;6.53;;;5.13;;
68523;SDS011;55524;51.380;13.372;2023-05-07T07:43:00;9.77;;;5.50;;
68523;SDS011;55524;51.380;13.372;2023-05-07T07:45:26;6.30;;;5.57;;
68523;SDS011;55524;51.380;13.372;2023-05-07T07:47:53;6.25;;;5.65;;
68523;SDS011;55524;51.380;13.372;2023-05-07T07:50:19;5.70;;;5.13;;
68523;SDS011;55524;51.380;13.372;2023-05-07T07:52:46;8.80;;;5.78;;
68523;SDS011;55524;51.380;13.372;2023-05-07T07:55:13;6.15;;;5.38;;
68523;SDS011;55524;51.380;13.372;2023-05-07T07:57:43;12.60;;;5.55;;
68523;SDS011;55524;51.380;13.372;2023-05-07T08:00:09;5.65;;;4.78;;
68523;SDS011;55524;51.380;13.372;2023-05-07T08:02:36;8.05;;;5.50;;
68523;SDS011;55524;51.380;13.372;2023-05-07T08:05:02;8.38;;;6.25;;
68523;SDS011;55524;51.380;13.372;2023-05-07T08:07:29;9.88;;;7.03;;
68523;SDS011;55524;51.380;13.372;2023-05-07T08:09:55;9.38;;;7.40;;
68523;SDS011;55524;51.380;13.372;2023-05-07T08:12:21;8.65;;;7.03;;
68523;SDS011;55524;51.380;13.372;2023-05-07T08:14:48;7.18;;;6.47;;
68523;SDS011;55524;51.380;13.372;2023-05-07T08:17:14;8.60;;;7.55;;
68523;SDS011;55524;51.380;13.372;2023-05-07T08:19:41;13.60;;;7.22;;
68523;SDS011;55524;51.380;13.372;2023-05-07T08:22:08;11.40;;;7.68;;
68523;SDS011;55524;51.380;13.372;2023-05-07T08:24:35;12.30;;;7.93;;
68523;SDS011;55524;51.380;13.372;2023-05-07T08:27:02;14.32;;;7.75;;
68523;SDS011;55524;51.380;13.372;2023-05-07T08:29:28;12.10;;;7.10;;
68523;SDS011;55524;51.380;13.372;2023-05-07T08:31:54;8.77;;;7.03;;
68523;SDS011;55524;51.380;13.372;2023-05-07T08:34:21;8.02;;;7.20;;
68523;SDS011;55524;51.380;13.372;2023-05-07T08:36:48;8.55;;;6.68;;
68523;SDS011;55524;51.380;13.372;2023-05-07T08:39:17;8.95;;;6.43;;
68523;SDS011;55524;51.380;13.372;2023-05-07T08:41:46;9.65;;;6.63;;
68523;SDS011;55524;51.380;13.372;2023-05-07T08:44:17;7.50;;;6.72;;
68523;SDS011;55524;51.380;13.372;2023-05-07T08:46:51;6.53;;;5.93;;
68523;SDS011;55524;51.380;13.372;2023-05-07T08:49:19;8.50;;;6.45;;
68523;SDS011;55524;51.380;13.372;2023-05-07T08:51:46;7.97;;;5.97;;
68523;SDS011;55524;51.380;13.372;2023-05-07T08:54:15;9.13;;;5.85;;
68523;SDS011;55524;51.380;13.372;2023-05-07T08:56:42;6.22;;;5.63;;
68523;SDS011;55524;51.380;13.372;2023-05-07T08:59:09;7.47;;;5.45;;
68523;SDS011;55524;51.380;13.372;2023-05-07T09:01:35;9.98;;;5.38;;
68523;SDS011;55524;51.380;13.372;2023-05-07T09:04:02;5.63;;;5.13;;
68523;SDS011;55524;51.380;13.372;2023-05-07T09:06:29;5.75;;;4.70;;
68523;SDS011;55524;51.380;13.372;2023-05-07T09:08:55;5.75;;;4.70;;
68523;SDS011;55524;51.380;13.372;2023-05-07T09:11:23;6.32;;;5.20;;
68523;SDS011;55524;51.380;13.372;2023-05-07T09:13:54;6.25;;;5.15;;
68523;SDS011;55524;51.380;13.372;2023-05-07T09:16:21;8.25;;;5.50;;
68523;SDS011;55524;51.380;13.372;2023-05-07T09:18:50;21.30;;;5.90;;
68523;SDS011;55524;51.380;13.372;2023-05-07T09:21:18;7.43;;;5.13;;
68523;SDS011;55524;51.380;13.372;2023-05-07T09:23:47;6.40;;;5.32;;
68523;SDS011;55524;51.380;13.372;2023-05-07T09:26:16;6.50;;;5.28;;
68523;SDS011;55524;51.380;13.372;2023-05-07T09:28:42;13.05;;;5.50;;
68523;SDS011;55524;51.380;13.372;2023-05-07T09:31:11;5.95;;;5.43;;
68523;SDS011;55524;51.380;13.372;2023-05-07T09:33:38;9.15;;;7.15;;
68523;SDS011;55524;51.380;13.372;2023-05-07T09:36:08;9.82;;;7.38;;
68523;SDS011;55524;51.380;13.372;2023-05-07T09:38:35;10.82;;;7.68;;
68523;SDS011;55524;51.380;13.372;2023-05-07T09:43:38;8.60;;;7.70;;
68523;SDS011;55524;51.380;13.372;2023-05-07T09:46:06;9.20;;;7.32;;
68523;SDS011;55524;51.380;13.372;2023-05-07T09:48:43;10.68;;;7.97;;
68523;SDS011;55524;51.380;13.372;2023-05-07T09:51:15;8.35;;;6.63;;
68523;SDS011;55524;51.380;13.372;2023-05-07T09:53:56;8.23;;;7.18;;
68523;SDS011;55524;51.380;13.372;2023-05-07T09:56:25;7.15;;;6.43;;
68523;SDS011;55524;51.380;13.372;2023-05-07T09:58:54;7.78;;;5.70;;
68523;SDS011;55524;51.380;13.372;2023-05-07T10:01:22;10.90;;;5.60;;
68523;SDS011;55524;51.380;13.372;2023-05-07T10:03:50;7.25;;;5.65;;
68523;SDS011;55524;51.380;13.372;2023-05-07T10:06:17;34.70;;;7.10;;
68523;SDS011;55524;51.380;13.372;2023-05-07T10:08:45;12.93;;;6.53;;
68523;SDS011;55524;51.380;13.372;2023-05-07T10:11:12;10.32;;;6.07;;
68523;SDS011;55524;51.380;13.372;2023-05-07T10:13:40;13.45;;;6.18;;
68523;SDS011;55524;51.380;13.372;2023-05-07T10:16:08;6.95;;;5.50;;
68523;SDS011;55524;51.380;13.372;2023-05-07T10:18:34;9.93;;;6.03;;
68523;SDS011;55524;51.380;13.372;2023-05-07T10:21:11;6.72;;;5.25;;
68523;SDS011;55524;51.380;13.372;2023-05-07T10:23:51;6.07;;;4.70;;
68523;SDS011;55524;51.380;13.372;2023-05-07T10:26:31;5.55;;;4.72;;
68523;SDS011;55524;51.380;13.372;2023-05-07T10:29:05;12.00;;;5.30;;
68523;SDS011;55524;51.380;13.372;2023-05-07T10:37:53;5.90;;;4.47;;
68523;SDS011;55524;51.380;13.372;2023-05-07T10:40:20;5.25;;;4.13;;
68523;SDS011;55524;51.380;13.372;2023-05-07T10:42:53;5.57;;;4.68;;
68523;SDS011;55524;51.380;13.372;2023-05-07T10:45:21;9.35;;;4.40;;
68523;SDS011;55524;51.380;13.372;2023-05-07T10:50:35;4.78;;;4.30;;
68523;SDS011;55524;51.380;13.372;2023-05-07T10:55:48;16.17;;;5.05;;
68523;SDS011;55524;51.380;13.372;2023-05-07T10:58:37;5.28;;;4.78;;
68523;SDS011;55524;51.380;13.372;2023-05-07T11:01:04;5.22;;;4.72;;
68523;SDS011;55524;51.380;13.372;2023-05-07T11:03:30;10.73;;;4.72;;
68523;SDS011;55524;51.380;13.372;2023-05-07T11:06:13;4.97;;;4.45;;
68523;SDS011;55524;51.380;13.372;2023-05-07T11:17:18;6.70;;;4.23;;
68523;SDS011;55524;51.380;13.372;2023-05-07T11:19:49;7.95;;;4.50;;
68523;SDS011;55524;51.380;13.372;2023-05-07T11:25:00;6.03;;;3.88;;
68523;SDS011;55524;51.380;13.372;2023-05-07T11:27:28;3.80;;;3.47;;
68523;SDS011;55524;51.380;13.372;2023-05-07T11:29:55;4.97;;;4.30;;
68523;SDS011;55524;51.380;13.372;2023-05-07T11:32:26;4.50;;;4.10;;
68523;SDS011;55524;51.380;13.372;2023-05-07T11:34:55;5.22;;;3.95;;
68523;SDS011;55524;51.380;13.372;2023-05-07T11:37:23;6.20;;;3.35;;
68523;SDS011;55524;51.380;13.372;2023-05-07T11:40:01;3.97;;;3.55;;
68523;SDS011;55524;51.380;13.372;2023-05-07T11:42:35;3.60;;;2.97;;
68523;SDS011;55524;51.380;13.372;2023-05-07T11:45:03;3.90;;;3.25;;
68523;SDS011;55524;51.380;13.372;2023-05-07T11:47:31;3.88;;;3.42;;
68523;SDS011;55524;51.380;13.372;2023-05-07T11:50:02;3.80;;;3.28;;
68523;SDS011;55524;51.380;13.372;2023-05-07T11:52:30;5.13;;;3.25;;
68523;SDS011;55524;51.380;13.372;2023-05-07T11:54:57;4.75;;;3.75;;
68523;SDS011;55524;51.380;13.372;2023-05-07T11:57:43;4.72;;;3.38;;
68523;SDS011;55524;51.380;13.372;2023-05-07T12:00:10;5.28;;;3.70;;
68523;SDS011;55524;51.380;13.372;2023-05-07T12:02:37;3.30;;;3.03;;
68523;SDS011;55524;51.380;13.372;2023-05-07T12:05:03;3.50;;;3.20;;
68523;SDS011;55524;51.380;13.372;2023-05-07T12:07:30;5.15;;;2.80;;
68523;SDS011;55524;51.380;13.372;2023-05-07T12:09:59;3.90;;;2.78;;
68523;SDS011;55524;51.380;13.372;2023-05-07T12:12:39;3.60;;;3.30;;
68523;SDS011;55524;51.380;13.372;2023-05-07T12:15:07;3.33;;;3.13;;
68523;SDS011;55524;51.380;13.372;2023-05-07T12:17:33;3.40;;;3.10;;
68523;SDS011;55524;51.380;13.372;2023-05-07T12:20:01;2.83;;;2.63;;
68523;SDS011;55524;51.380;13.372;2023-05-07T12:22:28;3.28;;;2.53;;
68523;SDS011;55524;51.380;13.372;2023-05-07T12:24:57;3.47;;;2.88;;
68523;SDS011;55524;51.380;13.372;2023-05-07T12:27:25;5.80;;;3.10;;
68523;SDS011;55524;51.380;13.372;2023-05-07T12:29:51;3.10;;;2.80;;
68523;SDS011;55524;51.380;13.372;2023-05-07T12:32:18;3.05;;;2.67;;
68523;SDS011;55524;51.380;13.372;2023-05-07T12:34:46;3.45;;;2.47;;
68523;SDS011;55524;51.380;13.372;2023-05-07T12:37:25;3.75;;;2.33;;
68523;SDS011;55524;51.380;13.372;2023-05-07T12:40:05;8.65;;;3.45;;
68523;SDS011;55524;51.380;13.372;2023-05-07T12:42:35;2.47;;;2.28;;
68523;SDS011;55524;51.380;13.372;2023-05-07T12:45:09;3.35;;;2.30;;
68523;SDS011;55524;51.380;13.372;2023-05-07T12:47:36;2.45;;;2.25;;
68523;SDS011;55524;51.380;13.372;2023-05-07T12:50:04;1.95;;;1.85;;
68523;SDS011;55524;51.380;13.372;2023-05-07T12:52:31;2.58;;;2.38;;
68523;SDS011;55524;51.380;13.372;2023-05-07T12:55:04;3.17;;;1.90;;
68523;SDS011;55524;51.380;13.372;2023-05-07T12:57:37;2.20;;;1.80;;
68523;SDS011;55524;51.380;13.372;2023-05-07T13:00:05;2.80;;;2.60;;
68523;SDS011;55524;51.380;13.372;2023-05-07T13:02:32;2.22;;;2.05;;
68523;SDS011;55524;51.380;13.372;2023-05-07T13:04:59;2.47;;;2.28;;
68523;SDS011;55524;51.380;13.372;2023-05-07T13:07:26;2.05;;;1.95;;
68523;SDS011;55524;51.380;13.372;2023-05-07T13:09:52;2.58;;;2.38;;
68523;SDS011;55524;51.380;13.372;2023-05-07T13:12:18;2.58;;;2.38;;
68523;SDS011;55524;51.380;13.372;2023-05-07T13:14:45;2.58;;;1.90;;
68523;SDS011;55524;51.380;13.372;2023-05-07T13:17:11;2.00;;;1.90;;
68523;SDS011;55524;51.380;13.372;2023-05-07T13:19:38;2.15;;;1.90;;
68523;SDS011;55524;51.380;13.372;2023-05-07T13:22:04;2.33;;;2.13;;
68523;SDS011;55524;51.380;13.372;2023-05-07T13:24:31;2.78;;;2.33;;
68523;SDS011;55524;51.380;13.372;2023-05-07T13:26:57;4.82;;;3.65;;
68523;SDS011;55524;51.380;13.372;2023-05-07T13:29:23;3.70;;;2.90;;
68523;SDS011;55524;51.380;13.372;2023-05-07T13:31:54;3.30;;;3.03;;
68523;SDS011;55524;51.380;13.372;2023-05-07T13:34:21;3.08;;;2.47;;
68523;SDS011;55524;51.380;13.372;2023-05-07T13:36:47;2.50;;;2.33;;
68523;SDS011;55524;51.380;13.372;2023-05-07T13:39:14;2.53;;;2.40;;
68523;SDS011;55524;51.380;13.372;2023-05-07T13:41:40;2.78;;;2.50;;
68523;SDS011;55524;51.380;13.372;2023-05-07T13:44:06;2.70;;;2.45;;
68523;SDS011;55524;51.380;13.372;2023-05-07T13:46:33;2.97;;;2.55;;
68523;SDS011;55524;51.380;13.372;2023-05-07T13:48:59;2.67;;;2.40;;
68523;SDS011;55524;51.380;13.372;2023-05-07T13:51:25;2.80;;;2.53;;
68523;SDS011;55524;51.380;13.372;2023-05-07T13:53:52;5.32;;;2.97;;
68523;SDS011;55524;51.380;13.372;2023-05-07T13:56:19;3.42;;;3.17;;
68523;SDS011;55524;51.380;13.372;2023-05-07T13:58:46;4.57;;;3.72;;
68523;SDS011;55524;51.380;13.372;2023-05-07T14:01:12;4.07;;;3.50;;
68523;SDS011;55524;51.380;13.372;2023-05-07T14:03:38;4.50;;;3.42;;
68523;SDS011;55524;51.380;13.372;2023-05-07T14:06:05;3.55;;;3.25;;
68523;SDS011;55524;51.380;13.372;2023-05-07T14:08:31;3.83;;;3.53;;
68523;SDS011;55524;51.380;13.372;2023-05-07T14:10:57;4.30;;;3.55;;
68523;SDS011;55524;51.380;13.372;2023-05-07T14:13:25;4.20;;;3.60;;
68523;SDS011;55524;51.380;13.372;2023-05-07T14:15:51;4.82;;;3.15;;
68523;SDS011;55524;51.380;13.372;2023-05-07T14:18:18;3.78;;;3.33;;
68523;SDS011;55524;51.380;13.372;2023-05-07T14:20:44;3.90;;;3.65;;
68523;SDS011;55524;51.380;13.372;2023-05-07T14:23:12;3.42;;;3.13;;
68523;SDS011;55524;51.380;13.372;2023-05-07T14:25:39;8.57;;;3.53;;
68523;SDS011;55524;51.380;13.372;2023-05-07T14:28:06;3.75;;;3.35;;
68523;SDS011;55524;51.380;13.372;2023-05-07T14:30:32;4.03;;;3.53;;
68523;SDS011;55524;51.380;13.372;2023-05-07T14:32:58;4.22;;;3.53;;
68523;SDS011;55524;51.380;13.372;2023-05-07T14:35:25;5.97;;;3.78;;
68523;SDS011;55524;51.380;13.372;2023-05-07T14:37:51;4.80;;;3.92;;
68523;SDS011;55524;51.380;13.372;2023-05-07T14:40:17;5.40;;;4.03;;
68523;SDS011;55524;51.380;13.372;2023-05-07T14:42:44;4.65;;;4.18;;
68523;SDS011;55524;51.380;13.372;2023-05-07T14:45:10;4.65;;;4.22;;
68523;SDS011;55524;51.380;13.372;2023-05-07T14:47:36;4.55;;;4.15;;
68523;SDS011;55524;51.380;13.372;2023-05-07T14:50:03;4.97;;;3.78;;
68523;SDS011;55524;51.380;13.372;2023-05-07T14:52:29;4.75;;;4.25;;